Time;durP1;ratioP1;P1;durP2;ratioP2;P2;SDS_P1;SDS_P2;PMS_P1;PMS_P2;Temp;Humidity;BMP_temperature;BMP_pressure;BME280_temperature;BME280_humidity;BME280_pressure;Samples;Min_cycle;Max_cycle;Signal;HPM_P1;HPM_P2
2023/12/02 00:00:36;;;;;;;;;;;;;;;;;;4996270;28;19926;-75
2023/12/02 00:03:03;;;;;;;;;;;;;;;;;;4996080;28;19930;-75
2023/12/02 00:05:29;;;;;;;;;;;;;;;;;;4996121;28;19925;-76
2023/12/02 00:07:56;;;;;;;;;;;;;;;;;;4995845;28;19925;-75
2023/12/02 00:10:23;;;;;;;;;;;;;;;;;;4995846;28;19925;-74
2023/12/02 00:12:50;;;;;;;;;;;;;;;;;;4995460;28;20406;-73
2023/12/02 00:15:17;;;;;;;;;;;;;;;;;;4995411;28;19925;-73
2023/12/02 00:17:44;;;;;;;;;;;;;;;;;;4995745;28;19932;-73
2023/12/02 00:20:11;;;;;;;;;;;;;;;;;;4995701;28;19926;-73
2023/12/02 00:22:38;;;;;;;;;;;;;;;;;;4995459;28;19933;-73
2023/12/02 00:25:05;;;;;;;;;;;;;;;;;;4995529;28;19925;-73
2023/12/02 00:27:31;;;;;;;;;;;;;;;;;;4995588;28;19933;-73
2023/12/02 00:29:58;;;;;;;;;;;;;;;;;;4995439;28;19926;-73
2023/12/02 00:32:25;;;;;;;;;;;;;;;;;;4995428;28;19925;-73
2023/12/02 00:34:52;;;;;;;;;;;;;;;;;;4995397;28;19925;-74
2023/12/02 00:37:19;;;;;;;;;;;;;;;;;;4995367;28;19930;-74
2023/12/02 00:39:46;;;;;;;;;;;;;;;;;;4995300;28;19926;-74
2023/12/02 00:42:13;;;;;;;;;;;;;;;;;;4995287;28;19933;-74
2023/12/02 00:44:40;;;;;;;;;;;;;;;;;;4995096;28;19926;-74
2023/12/02 00:47:07;;;;;;;;;;;;;;;;;;4994927;28;20387;-74
2023/12/02 00:49:34;;;;;;;;;;;;;;;;;;4995148;28;19933;-74
2023/12/02 00:52:00;;;;;;;;;;;;;;;;;;4995196;28;19933;-73
2023/12/02 00:54:27;;;;;;;;;;;;;;;;;;4994919;28;19929;-73
2023/12/02 00:56:54;;;;;;;;;;;;;;;;;;4994944;28;19932;-73
2023/12/02 00:59:21;;;;;;;;;;;;;;;;;;4994551;28;20394;-72
2023/12/02 01:01:48;;;;;;;;;;;;;;;;;;4994833;28;20002;-73
2023/12/02 01:04:15;;;;;;;;;;;;;;;;;;4994721;28;19925;-74
2023/12/02 01:06:42;;;;;;;;;;;;;;;;;;4994654;28;20383;-75
2023/12/02 01:09:09;;;;;;;;;;;;;;;;;;4994803;28;19925;-74
2023/12/02 01:11:36;;;;;;;;;;;;;;;;;;4994716;28;19925;-74
2023/12/02 01:14:03;;;;;;;;;;;;;;;;;;4994996;28;19933;-74
2023/12/02 01:16:29;;;;;;;;;;;;;;;;;;4998468;28;19926;-75
2023/12/02 01:18:56;;;;;;;;;;;;;;;;;;5002118;28;19949;-75
2023/12/02 01:21:23;;;;;;;;;;;;;;;;;;4994559;28;19933;-74
2023/12/02 01:23:50;;;;;;;;;;;;;;;;;;5017209;23;19994;-73
2023/12/02 06:09:50;;;;;;;;;;;;;;;;;;5540716;23;20398;-72
2023/12/02 06:12:17;;;;;;;;;;;;;;;;;;4987607;28;19926;-71
2023/12/02 06:14:43;;;;;;;;;;;;;;;;;;4998169;28;19933;-71
2023/12/02 06:17:10;;;;;;;;;;;;;;;;;;4998098;28;19925;-71
2023/12/02 06:19:37;;;;;;;;;;;;;;;;;;4997935;28;19925;-71
2023/12/02 06:22:04;;;;;;;;;;;;;;;;;;4997754;28;20299;-71
2023/12/02 06:24:31;;;;;;;;;;;;;;;;;;4998200;28;19926;-71
2023/12/02 06:26:58;;;;;;;;;;;;;;;;;;4998014;28;19953;-71
2023/12/02 06:29:25;;;;;;;;;;;;;;;;;;4997701;28;19926;-72
2023/12/02 06:31:53;;;;;;;;;;;;;;;;;;4998066;28;19925;-72
2023/12/02 06:34:20;;;;;;;;;;;;;;;;;;4997917;28;19925;-72
2023/12/02 06:36:47;;;;;;;;;;;;;;;;;;4997476;28;19972;-72
2023/12/02 06:39:14;;;;;;;;;;;;;;;;;;4997759;28;19932;-71
2023/12/02 06:41:42;;;;;;;;;;;;;;;;;;4997540;28;19930;-71
2023/12/02 06:44:09;;;;;;;;;;;;;;;;;;4997425;28;19941;-71
2023/12/02 06:46:36;;;;;;;;;;;;;;;;;;4997394;28;19929;-71
2023/12/02 06:49:03;;;;;;;;;;;;;;;;;;4997742;28;19926;-71
2023/12/02 06:51:30;;;;;;;;;;;;;;;;;;4997292;28;19933;-72
2023/12/02 06:53:57;;;;;;;;;;;;;;;;;;4997438;28;19969;-71
2023/12/02 06:56:24;;;;;;;;;;;;;;;;;;4997336;28;19933;-72
2023/12/02 06:58:51;;;;;;;;;;;;;;;;;;4997186;28;19929;-72
2023/12/02 07:01:17;;;;;;;;;;;;;;;;;;4997272;28;19926;-70
2023/12/02 07:03:44;;;;;;;;;;;;;;;;;;4997220;28;19933;-69
2023/12/02 07:06:11;;;;;;;;;;;;;;;;;;4997035;28;19929;-70
2023/12/02 07:08:38;;;;;;;;;;;;;;;;;;4996737;28;20291;-70
2023/12/02 07:11:05;;;;;;;;;;;;;;;;;;4997106;28;19925;-71
2023/12/02 07:13:32;;;;;;;;;;;;;;;;;;4997018;28;20306;-70
2023/12/02 07:15:59;;;;;;;;;;;;;;;;;;4996954;28;19926;-71
2023/12/02 07:18:26;;;;;;;;;;;;;;;;;;4996963;28;19937;-71
2023/12/02 07:20:53;;;;;;;;;;;;;;;;;;4996896;28;19981;-71
2023/12/02 07:23:20;;;;;;;;;;;;;;;;;;4995559;28;20311;-72
2023/12/02 07:25:47;;;;;;;;;;;;;;;;;;4996649;28;19937;-72
2023/12/02 07:28:14;;;;;;;;;;;;;;;;;;4996506;28;20319;-72
2023/12/02 07:30:41;;;;;;;;;;;;;;;;;;4996805;28;19925;-70
2023/12/02 07:33:08;;;;;;;;;;;;;;;;;;4996941;28;19926;-70
2023/12/02 07:35:35;;;;;;;;;;;;;;;;;;4996506;28;20037;-71
2023/12/02 07:38:02;;;;;;;;;;;;;;;;;;4996232;28;20272;-71
2023/12/02 07:40:29;;;;;;;;;;;;;;;;;;4996452;28;19926;-71
2023/12/02 07:42:56;;;;;;;;;;;;;;;;;;4996429;28;20101;-70
2023/12/02 07:45:23;;;;;;;;;;;;;;;;;;4996314;28;19949;-70
2023/12/02 07:47:50;;;;;;;;;;;;;;;;;;4996678;28;19970;-71
2023/12/02 07:50:17;;;;;;;;;;;;;;;;;;4996129;28;20387;-71
2023/12/02 07:52:43;;;;;;;;;;;;;;;;;;4996382;28;19933;-71
2023/12/02 07:55:12;;;;;;;;;;;;;;;;;;4996222;28;19933;-71
2023/12/02 07:57:39;;;;;;;;;;;;;;;;;;4996199;28;20021;-71
2023/12/02 08:00:06;;;;;;;;;;;;;;;;;;4996032;28;19925;-72
2023/12/02 08:02:33;;;;;;;;;;;;;;;;;;4996202;28;19932;-70
2023/12/02 08:05:00;;;;;;;;;;;;;;;;;;4995782;28;20295;-72
2023/12/02 08:07:27;;;;;;;;;;;;;;;;;;4996017;28;19933;-72
2023/12/02 08:09:53;;;;;;;;;;;;;;;;;;4995866;28;19933;-71
2023/12/02 08:12:20;;;;;;;;;;;;;;;;;;4995686;28;19926;-72
2023/12/02 08:14:47;;;;;;;;;;;;;;;;;;4995722;28;19933;-70
2023/12/02 08:17:14;;;;;;;;;;;;;;;;;;4995489;28;20395;-71
2023/12/02 08:19:41;;;;;;;;;;;;;;;;;;4995637;28;19933;-72
2023/12/02 08:22:08;;;;;;;;;;;;;;;;;;4995821;28;19932;-72
2023/12/02 08:24:42;;;;;;;;;;;;;;;;;;4996269;28;19930;-72
2023/12/02 08:27:09;;;;;;;;;;;;;;;;;;4996082;28;19926;-73
2023/12/02 08:29:36;;;;;;;;;;;;;;;;;;4995944;28;19933;-72
2023/12/02 08:32:03;;;;;;;;;;;;;;;;;;4996129;28;19926;-72
2023/12/02 08:34:30;;;;;;;;;;;;;;;;;;4995214;28;19965;-72
2023/12/02 08:36:57;;;;;;;;;;;;;;;;;;4995691;28;19930;-71
2023/12/02 08:39:24;;;;;;;;;;;;;;;;;;4995698;28;20294;-72
2023/12/02 08:41:51;;;;;;;;;;;;;;;;;;4995726;28;20295;-73
2023/12/02 08:44:18;;;;;;;;;;;;;;;;;;4996444;28;19925;-73
2023/12/02 08:46:45;;;;;;;;;;;;;;;;;;4995511;28;19933;-73
2023/12/02 08:49:12;;;;;;;;;;;;;;;;;;4995525;28;19926;-73
2023/12/02 08:51:39;;;;;;;;;;;;;;;;;;4995553;28;20291;-72
2023/12/02 08:54:06;;;;;;;;;;;;;;;;;;4995554;28;20284;-72
2023/12/02 08:56:33;;;;;;;;;;;;;;;;;;4995176;28;19933;-72
2023/12/02 08:59:00;;;;;;;;;;;;;;;;;;4995423;28;19960;-72
2023/12/02 09:01:27;;;;;;;;;;;;;;;;;;4994735;28;20407;-72
2023/12/02 09:03:53;;;;;;;;;;;;;;;;;;4995273;28;19926;-71
2023/12/02 09:06:20;;;;;;;;;;;;;;;;;;4994847;28;19926;-71
2023/12/02 09:08:48;;;;;;;;;;;;;;;;;;4995923;28;19929;-72
2023/12/02 09:11:15;;;;;;;;;;;;;;;;;;4994562;28;20384;-71
2023/12/02 09:13:42;;;;;;;;;;;;;;;;;;4994729;28;20371;-71
2023/12/02 09:16:08;;;;;;;;;;;;;;;;;;4995111;28;19965;-71
2023/12/02 09:18:35;;;;;;;;;;;;;;;;;;4994958;28;19932;-71
2023/12/02 09:21:02;;;;;;;;;;;;;;;;;;4994943;28;20017;-71
2023/12/02 09:23:29;;;;;;;;;;;;;;;;;;4994893;28;19926;-71
2023/12/02 09:25:56;;;;;;;;;;;;;;;;;;4994418;28;19934;-71
2023/12/02 09:28:26;;;;;;;;;;;;;;;;;;4995089;28;19932;-71
2023/12/02 09:30:53;;;;;;;;;;;;;;;;;;4994602;28;19926;-72
2023/12/02 09:33:20;;;;;;;;;;;;;;;;;;4995013;28;19926;-72
2023/12/02 09:35:47;;;;;;;;;;;;;;;;;;4994503;28;19930;-70
2023/12/02 09:38:14;;;;;;;;;;;;;;;;;;4994559;28;19926;-71
2023/12/02 09:40:41;;;;;;;;;;;;;;;;;;4994395;28;19933;-69
2023/12/02 09:43:07;;;;;;;;;;;;;;;;;;4994164;28;20288;-72
2023/12/02 09:45:35;;;;;;;;;;;;;;;;;;4994191;28;19922;-72
2023/12/02 09:48:02;;;;;;;;;;;;;;;;;;4997273;28;20100;-72
2023/12/02 09:50:29;;;;;;;;;;;;;;;;;;4998126;28;20398;-72
2023/12/02 09:52:56;;;;;;;;;;;;;;;;;;4998672;28;19976;-72
2023/12/02 09:55:23;;;;;;;;;;;;;;;;;;5006231;28;19910;-72
2023/12/02 09:57:49;;;;;;;;;;;;;;;;;;5015349;28;19925;-72
2023/12/02 10:00:19;;;;;;;;;;;;;;;;;;4998444;28;19926;-72
2023/12/02 10:02:46;;;;;;;;;;;;;;;;;;4998076;28;20383;-72
2023/12/02 10:05:13;;;;;;;;;;;;;;;;;;4998430;28;19926;-73
2023/12/02 10:07:40;;;;;;;;;;;;;;;;;;4997963;28;20387;-73
2023/12/02 10:10:08;;;;;;;;;;;;;;;;;;4998523;28;19926;-73
2023/12/02 10:12:35;;;;;;;;;;;;;;;;;;4997690;28;20383;-73
2023/12/02 10:15:05;;;;;;;;;;;;;;;;;;4998560;28;19926;-74
2023/12/02 10:17:32;;;;;;;;;;;;;;;;;;4997894;28;20429;-74
2023/12/02 10:19:58;;;;;;;;;;;;;;;;;;4998227;28;19937;-72
2023/12/02 10:22:25;;;;;;;;;;;;;;;;;;4998379;28;19948;-71
2023/12/02 10:24:52;;;;;;;;;;;;;;;;;;4998025;28;20012;-71
2023/12/02 10:27:19;;;;;;;;;;;;;;;;;;4998450;28;19926;-73
2023/12/02 10:29:47;;;;;;;;;;;;;;;;;;4998792;28;19949;-72
2023/12/02 10:32:14;;;;;;;;;;;;;;;;;;4998353;28;19925;-73
2023/12/02 10:34:41;;;;;;;;;;;;;;;;;;4998009;28;20343;-71
2023/12/02 10:37:08;;;;;;;;;;;;;;;;;;4998407;28;19926;-71
2023/12/02 10:39:35;;;;;;;;;;;;;;;;;;4998688;28;19930;-71
2023/12/02 10:42:02;;;;;;;;;;;;;;;;;;4998652;28;19925;-73
2023/12/02 10:44:29;;;;;;;;;;;;;;;;;;4997676;28;20040;-71
2023/12/02 10:46:57;;;;;;;;;;;;;;;;;;4997991;28;19926;-72
2023/12/02 10:49:23;;;;;;;;;;;;;;;;;;4997805;28;19926;-72
2023/12/02 10:51:50;;;;;;;;;;;;;;;;;;4997721;28;19930;-72
2023/12/02 10:54:20;;;;;;;;;;;;;;;;;;4998200;28;19925;-72
2023/12/02 10:56:47;;;;;;;;;;;;;;;;;;4997100;28;20406;-72
2023/12/02 10:59:14;;;;;;;;;;;;;;;;;;4996941;28;19969;-72
2023/12/02 11:01:41;;;;;;;;;;;;;;;;;;4997716;28;19926;-72
2023/12/02 11:04:08;;;;;;;;;;;;;;;;;;4997665;28;19926;-72
2023/12/02 11:06:35;;;;;;;;;;;;;;;;;;4997181;28;19930;-72
2023/12/02 11:09:02;;;;;;;;;;;;;;;;;;4997294;28;19933;-71
2023/12/02 11:11:29;;;;;;;;;;;;;;;;;;4997369;28;19977;-72
2023/12/02 11:13:56;;;;;;;;;;;;;;;;;;4996959;28;20428;-72
2023/12/02 11:16:22;;;;;;;;;;;;;;;;;;4997124;28;19949;-71
2023/12/02 11:18:49;;;;;;;;;;;;;;;;;;4996938;28;19926;-71
2023/12/02 11:21:16;;;;;;;;;;;;;;;;;;4997934;28;19926;-70
2023/12/02 11:23:43;;;;;;;;;;;;;;;;;;4997267;28;19926;-69
2023/12/02 11:26:11;;;;;;;;;;;;;;;;;;4996704;28;19926;-69
2023/12/02 11:28:38;;;;;;;;;;;;;;;;;;4996365;28;20344;-69
2023/12/02 11:31:06;;;;;;;;;;;;;;;;;;4996549;28;19926;-70
2023/12/02 11:33:33;;;;;;;;;;;;;;;;;;4996234;28;20371;-68
2023/12/02 11:36:00;;;;;;;;;;;;;;;;;;4996411;28;19925;-70
2023/12/02 11:38:26;;;;;;;;;;;;;;;;;;4996487;28;19933;-71
2023/12/02 11:40:53;;;;;;;;;;;;;;;;;;4996317;28;19933;-71
2023/12/02 11:43:20;;;;;;;;;;;;;;;;;;4996377;28;19926;-71
2023/12/02 11:45:47;;;;;;;;;;;;;;;;;;4996542;28;19930;-71
2023/12/02 11:48:14;;;;;;;;;;;;;;;;;;4996932;28;20286;-71
2023/12/02 11:50:41;;;;;;;;;;;;;;;;;;4996487;28;19926;-71
2023/12/02 11:53:08;;;;;;;;;;;;;;;;;;4996182;28;20397;-69
2023/12/02 11:55:35;;;;;;;;;;;;;;;;;;4996125;28;19926;-69
2023/12/02 11:58:02;;;;;;;;;;;;;;;;;;4995998;28;19933;-69
2023/12/02 12:00:29;;;;;;;;;;;;;;;;;;4996578;28;19925;-69
2023/12/02 12:02:56;;;;;;;;;;;;;;;;;;4996347;28;19925;-69
2023/12/02 12:05:23;;;;;;;;;;;;;;;;;;4995737;28;19926;-70
2023/12/02 12:07:50;;;;;;;;;;;;;;;;;;4995909;28;19926;-70
2023/12/02 12:10:17;;;;;;;;;;;;;;;;;;4995427;28;19925;-70
2023/12/02 12:12:43;;;;;;;;;;;;;;;;;;4995582;28;20001;-70
2023/12/02 12:15:10;;;;;;;;;;;;;;;;;;4995804;28;19932;-70
2023/12/02 12:17:38;;;;;;;;;;;;;;;;;;4995940;28;19926;-70
2023/12/02 12:20:05;;;;;;;;;;;;;;;;;;4995650;28;19973;-70
2023/12/02 12:22:32;;;;;;;;;;;;;;;;;;4995637;28;20093;-69
2023/12/02 12:24:59;;;;;;;;;;;;;;;;;;4995261;28;19930;-69
2023/12/02 12:27:26;;;;;;;;;;;;;;;;;;4995695;28;19926;-69
2023/12/02 12:29:54;;;;;;;;;;;;;;;;;;4995653;28;19933;-69
2023/12/02 12:32:20;;;;;;;;;;;;;;;;;;4995914;28;19988;-69
2023/12/02 12:34:47;;;;;;;;;;;;;;;;;;4995707;28;19933;-69
2023/12/02 12:37:14;;;;;;;;;;;;;;;;;;4995986;28;19926;-69
2023/12/02 12:39:41;;;;;;;;;;;;;;;;;;4995788;28;19932;-70
2023/12/02 12:42:08;;;;;;;;;;;;;;;;;;4995304;28;19965;-69
2023/12/02 12:44:35;;;;;;;;;;;;;;;;;;4995676;28;19926;-69
2023/12/02 12:47:03;;;;;;;;;;;;;;;;;;4994928;28;19932;-69
2023/12/02 12:49:30;;;;;;;;;;;;;;;;;;4994877;28;19984;-69
2023/12/02 12:51:57;;;;;;;;;;;;;;;;;;4995458;28;19926;-69
2023/12/02 12:54:23;;;;;;;;;;;;;;;;;;4995325;28;19926;-69
2023/12/02 12:56:50;;;;;;;;;;;;;;;;;;4995228;28;19930;-69
2023/12/02 12:59:18;;;;;;;;;;;;;;;;;;4995366;28;19926;-69
2023/12/02 13:01:45;;;;;;;;;;;;;;;;;;4995082;28;20020;-69
2023/12/02 13:04:12;;;;;;;;;;;;;;;;;;4994981;28;19977;-70
2023/12/02 13:06:39;;;;;;;;;;;;;;;;;;4995142;28;19926;-71
2023/12/02 13:09:06;;;;;;;;;;;;;;;;;;4995051;28;19926;-71
2023/12/02 13:11:33;;;;;;;;;;;;;;;;;;4995127;28;19972;-71
2023/12/02 13:14:00;;;;;;;;;;;;;;;;;;4995181;28;19926;-71
2023/12/02 13:16:28;;;;;;;;;;;;;;;;;;4995510;28;19926;-71
2023/12/02 13:18:56;;;;;;;;;;;;;;;;;;4994963;28;20414;-70
2023/12/02 13:21:23;;;;;;;;;;;;;;;;;;4995255;28;19965;-71
2023/12/02 13:23:50;;;;;;;;;;;;;;;;;;4995345;28;20029;-70
2023/12/02 13:26:17;;;;;;;;;;;;;;;;;;4995658;28;19925;-70
2023/12/02 13:28:44;;;;;;;;;;;;;;;;;;4994891;28;19926;-71
2023/12/02 13:31:12;;;;;;;;;;;;;;;;;;4995290;28;20013;-70
2023/12/02 13:33:39;;;;;;;;;;;;;;;;;;4995381;28;19925;-71
2023/12/02 13:36:06;;;;;;;;;;;;;;;;;;4995285;28;20009;-71
2023/12/02 13:38:33;;;;;;;;;;;;;;;;;;4995205;28;19976;-70
2023/12/02 13:41:00;;;;;;;;;;;;;;;;;;4995315;28;19967;-71
2023/12/02 13:43:27;;;;;;;;;;;;;;;;;;4995016;28;19932;-71
2023/12/02 13:45:54;;;;;;;;;;;;;;;;;;4995266;28;19926;-70
2023/12/02 13:48:21;;;;;;;;;;;;;;;;;;4995350;28;19926;-68
2023/12/02 13:50:47;;;;;;;;;;;;;;;;;;4994319;28;20311;-68
2023/12/02 13:53:15;;;;;;;;;;;;;;;;;;4994609;28;19933;-68
2023/12/02 13:55:42;;;;;;;;;;;;;;;;;;4994350;28;19977;-68
2023/12/02 13:58:08;;;;;;;;;;;;;;;;;;4994375;28;19926;-68
2023/12/02 14:00:35;;;;;;;;;;;;;;;;;;4995818;28;19926;-70
2023/12/02 14:03:02;;;;;;;;;;;;;;;;;;4994180;28;19926;-70
2023/12/02 14:05:29;;;;;;;;;;;;;;;;;;4994434;28;19928;-70
2023/12/02 14:07:56;;;;;;;;;;;;;;;;;;4994497;28;19926;-68
2023/12/02 14:10:23;;;;;;;;;;;;;;;;;;4994160;28;19933;-68
2023/12/02 14:12:49;;;;;;;;;;;;;;;;;;4993866;28;19930;-68
2023/12/02 14:15:16;;;;;;;;;;;;;;;;;;4994272;28;19922;-68
2023/12/02 14:17:43;;;;;;;;;;;;;;;;;;4993964;28;19930;-71
2023/12/02 14:20:10;;;;;;;;;;;;;;;;;;4994430;28;19930;-69
2023/12/02 14:22:35;;;;;;;;;;;;;;;;;;4994258;28;19972;-69
2023/12/02 14:25:02;;;;;;;;;;;;;;;;;;4994205;28;19921;-69
2023/12/02 14:27:29;;;;;;;;;;;;;;;;;;4994071;28;20045;-70
2023/12/02 14:29:56;;;;;;;;;;;;;;;;;;4994067;28;19926;-70
2023/12/02 14:32:23;;;;;;;;;;;;;;;;;;4994282;28;19930;-71
2023/12/02 14:34:50;;;;;;;;;;;;;;;;;;4997606;28;20359;-72
2023/12/02 14:37:17;;;;;;;;;;;;;;;;;;4997636;28;20295;-71
2023/12/02 14:39:44;;;;;;;;;;;;;;;;;;4997771;28;19933;-71
2023/12/02 14:42:10;;;;;;;;;;;;;;;;;;4997270;28;20391;-71
2023/12/02 14:44:37;;;;;;;;;;;;;;;;;;4997602;28;19926;-71
2023/12/02 14:47:04;;;;;;;;;;;;;;;;;;4997596;28;19933;-71
2023/12/02 14:49:32;;;;;;;;;;;;;;;;;;4997843;28;19926;-71
2023/12/02 14:51:58;;;;;;;;;;;;;;;;;;4997635;28;20303;-71
2023/12/02 14:54:25;;;;;;;;;;;;;;;;;;4998115;28;19926;-71
2023/12/02 14:56:52;;;;;;;;;;;;;;;;;;4997481;28;19933;-71
2023/12/02 14:59:19;;;;;;;;;;;;;;;;;;4997358;28;19925;-71
2023/12/02 15:01:46;;;;;;;;;;;;;;;;;;4997098;28;20398;-71
2023/12/02 15:04:13;;;;;;;;;;;;;;;;;;4997363;28;19925;-71
2023/12/02 15:06:40;;;;;;;;;;;;;;;;;;4997869;28;19929;-71
2023/12/02 15:09:07;;;;;;;;;;;;;;;;;;4997044;28;19992;-71
2023/12/02 15:11:35;;;;;;;;;;;;;;;;;;4996929;28;20422;-71
2023/12/02 15:14:02;;;;;;;;;;;;;;;;;;4997425;28;19926;-71
2023/12/02 15:16:29;;;;;;;;;;;;;;;;;;4997693;28;19926;-70
2023/12/02 15:18:56;;;;;;;;;;;;;;;;;;4997978;28;19933;-73
2023/12/02 15:21:23;;;;;;;;;;;;;;;;;;4999769;28;19932;-71
2023/12/02 15:23:52;;;;;;;;;;;;;;;;;;4999052;28;19930;-72
2023/12/02 15:26:19;;;;;;;;;;;;;;;;;;4998964;28;20272;-72
2023/12/02 15:28:47;;;;;;;;;;;;;;;;;;4997594;28;20283;-72
2023/12/02 15:31:15;;;;;;;;;;;;;;;;;;4998040;28;19926;-72
2023/12/02 15:33:43;;;;;;;;;;;;;;;;;;4997906;28;20009;-72
2023/12/02 15:36:10;;;;;;;;;;;;;;;;;;4998056;28;19941;-72
2023/12/02 15:38:37;;;;;;;;;;;;;;;;;;4997907;28;19926;-72
2023/12/02 15:41:04;;;;;;;;;;;;;;;;;;4997533;28;19926;-72
2023/12/02 15:43:30;;;;;;;;;;;;;;;;;;4997628;28;19925;-72
2023/12/02 15:45:57;;;;;;;;;;;;;;;;;;4995992;28;19928;-72
2023/12/02 15:48:24;;;;;;;;;;;;;;;;;;4997281;28;19933;-72
2023/12/02 15:50:51;;;;;;;;;;;;;;;;;;4998206;28;19930;-72
2023/12/02 15:53:18;;;;;;;;;;;;;;;;;;4997834;28;19926;-72
2023/12/02 15:55:45;;;;;;;;;;;;;;;;;;4997558;28;19926;-72
2023/12/02 15:58:12;;;;;;;;;;;;;;;;;;4996852;28;19926;-72
2023/12/02 16:00:38;;;;;;;;;;;;;;;;;;4996529;28;19949;-71
2023/12/02 16:03:06;;;;;;;;;;;;;;;;;;4996709;28;19926;-71
2023/12/02 16:05:33;;;;;;;;;;;;;;;;;;4996553;28;19926;-72
2023/12/02 16:08:00;;;;;;;;;;;;;;;;;;4996392;28;19932;-72
2023/12/02 16:10:27;;;;;;;;;;;;;;;;;;4996025;28;19926;-72
2023/12/02 16:12:54;;;;;;;;;;;;;;;;;;4995833;28;19926;-72
2023/12/02 16:15:21;;;;;;;;;;;;;;;;;;4995916;28;20321;-73
2023/12/02 16:17:48;;;;;;;;;;;;;;;;;;4996171;28;19926;-72
2023/12/02 16:20:15;;;;;;;;;;;;;;;;;;4995951;28;20012;-72
2023/12/02 16:22:42;;;;;;;;;;;;;;;;;;4996584;28;19925;-73
2023/12/02 16:25:09;;;;;;;;;;;;;;;;;;4996093;28;19926;-73
2023/12/02 16:27:36;;;;;;;;;;;;;;;;;;4996328;28;19929;-73
2023/12/02 16:30:03;;;;;;;;;;;;;;;;;;4996409;28;19948;-73
2023/12/02 16:32:30;;;;;;;;;;;;;;;;;;4995734;28;19926;-71
2023/12/02 16:34:57;;;;;;;;;;;;;;;;;;4995665;28;19926;-73
2023/12/02 16:37:24;;;;;;;;;;;;;;;;;;4995759;28;19980;-72
2023/12/02 16:39:51;;;;;;;;;;;;;;;;;;4995777;28;19930;-72
2023/12/02 16:42:18;;;;;;;;;;;;;;;;;;4995489;28;19933;-71
2023/12/02 16:44:45;;;;;;;;;;;;;;;;;;4995044;28;20309;-71
2023/12/02 16:47:12;;;;;;;;;;;;;;;;;;4996129;28;19925;-72
2023/12/02 16:49:39;;;;;;;;;;;;;;;;;;4995391;28;19933;-72
2023/12/02 16:52:05;;;;;;;;;;;;;;;;;;4996018;28;19925;-74
2023/12/02 16:54:32;;;;;;;;;;;;;;;;;;4995780;28;19933;-72
2023/12/02 16:56:59;;;;;;;;;;;;;;;;;;4995628;28;20376;-73
2023/12/02 16:59:26;;;;;;;;;;;;;;;;;;4995659;28;19926;-72
2023/12/02 17:01:53;;;;;;;;;;;;;;;;;;4995972;28;19956;-73
2023/12/02 17:04:20;;;;;;;;;;;;;;;;;;4995571;28;19926;-72
2023/12/02 17:06:47;;;;;;;;;;;;;;;;;;4994806;28;19933;-73
2023/12/02 17:09:15;;;;;;;;;;;;;;;;;;4995043;28;19929;-72
2023/12/02 17:11:42;;;;;;;;;;;;;;;;;;4995066;28;19932;-72
2023/12/02 17:14:10;;;;;;;;;;;;;;;;;;4995075;28;20387;-71
2023/12/02 17:16:36;;;;;;;;;;;;;;;;;;4995413;28;19933;-72
2023/12/02 17:19:03;;;;;;;;;;;;;;;;;;4995337;28;20302;-73
2023/12/02 17:21:30;;;;;;;;;;;;;;;;;;4995276;28;19929;-74
2023/12/02 17:23:57;;;;;;;;;;;;;;;;;;4995250;28;19926;-71
2023/12/02 17:26:24;;;;;;;;;;;;;;;;;;4994896;28;19926;-71
2023/12/02 17:28:51;;;;;;;;;;;;;;;;;;4994964;28;19930;-71
2023/12/02 17:31:18;;;;;;;;;;;;;;;;;;4995139;28;19976;-71
2023/12/02 17:33:45;;;;;;;;;;;;;;;;;;4994894;28;19932;-71
2023/12/02 17:36:12;;;;;;;;;;;;;;;;;;4994983;28;19937;-71
2023/12/02 17:38:39;;;;;;;;;;;;;;;;;;4994909;28;19925;-71
2023/12/02 17:41:08;;;;;;;;;;;;;;;;;;4994159;28;21282;-71
2023/12/02 17:43:34;;;;;;;;;;;;;;;;;;4995503;28;19933;-76
2023/12/02 17:46:01;;;;;;;;;;;;;;;;;;4995136;28;20493;-75
2023/12/02 17:48:28;;;;;;;;;;;;;;;;;;4995190;28;19933;-76
2023/12/02 17:50:55;;;;;;;;;;;;;;;;;;4994930;28;20418;-76
2023/12/02 17:53:22;;;;;;;;;;;;;;;;;;4995100;28;19937;-75
2023/12/02 17:55:49;;;;;;;;;;;;;;;;;;4994936;28;19926;-74
2023/12/02 17:58:16;;;;;;;;;;;;;;;;;;4994749;28;20386;-75
2023/12/02 18:00:43;;;;;;;;;;;;;;;;;;4995003;28;19934;-76
2023/12/02 18:03:10;;;;;;;;;;;;;;;;;;4995364;28;19926;-73
2023/12/02 18:05:37;;;;;;;;;;;;;;;;;;4994810;28;20483;-73
2023/12/02 18:08:05;;;;;;;;;;;;;;;;;;4996245;28;19926;-73
2023/12/02 18:10:32;;;;;;;;;;;;;;;;;;4999309;28;19934;-73
2023/12/02 18:12:58;;;;;;;;;;;;;;;;;;4998970;28;19933;-74
2023/12/02 18:15:25;;;;;;;;;;;;;;;;;;4998857;28;19933;-74
2023/12/02 18:17:52;;;;;;;;;;;;;;;;;;4998814;28;19937;-73
2023/12/02 18:20:19;;;;;;;;;;;;;;;;;;4998724;28;19976;-74
2023/12/02 18:22:46;;;;;;;;;;;;;;;;;;4998454;28;20387;-73
2023/12/02 18:25:13;;;;;;;;;;;;;;;;;;4998560;28;19932;-73
2023/12/02 18:27:40;;;;;;;;;;;;;;;;;;4998855;28;19926;-74
2023/12/02 18:30:07;;;;;;;;;;;;;;;;;;4998162;28;19926;-74
2023/12/02 18:32:34;;;;;;;;;;;;;;;;;;4998070;28;19969;-72
2023/12/02 18:35:02;;;;;;;;;;;;;;;;;;4998142;28;19973;-73
2023/12/02 18:37:28;;;;;;;;;;;;;;;;;;4998220;28;19981;-72
2023/12/02 18:39:55;;;;;;;;;;;;;;;;;;4997983;28;19926;-72
2023/12/02 18:42:22;;;;;;;;;;;;;;;;;;4998193;28;19936;-72
2023/12/02 18:44:49;;;;;;;;;;;;;;;;;;4997900;28;19926;-72
2023/12/02 18:47:16;;;;;;;;;;;;;;;;;;4998678;28;19935;-73
2023/12/02 18:49:43;;;;;;;;;;;;;;;;;;4997486;28;19926;-73
2023/12/02 18:52:10;;;;;;;;;;;;;;;;;;4998596;28;19926;-73
2023/12/02 18:54:38;;;;;;;;;;;;;;;;;;4997559;28;19926;-72
2023/12/02 18:57:05;;;;;;;;;;;;;;;;;;4997722;28;19926;-73
2023/12/02 18:59:32;;;;;;;;;;;;;;;;;;4997594;28;19980;-73
2023/12/02 19:01:59;;;;;;;;;;;;;;;;;;4998004;28;19925;-74
2023/12/02 19:04:25;;;;;;;;;;;;;;;;;;4997862;28;19926;-73
2023/12/02 19:06:52;;;;;;;;;;;;;;;;;;4998081;28;19937;-73
2023/12/02 19:09:19;;;;;;;;;;;;;;;;;;4997759;28;20388;-72
2023/12/02 19:11:46;;;;;;;;;;;;;;;;;;4997910;28;19933;-72
2023/12/02 19:14:13;;;;;;;;;;;;;;;;;;4998355;28;20276;-73
2023/12/02 19:16:40;;;;;;;;;;;;;;;;;;4998502;28;20017;-73
2023/12/02 19:19:09;;;;;;;;;;;;;;;;;;4998501;28;19926;-74
2023/12/02 19:21:36;;;;;;;;;;;;;;;;;;4998694;28;20379;-73
2023/12/02 19:24:04;;;;;;;;;;;;;;;;;;4999119;28;19936;-74
2023/12/02 19:26:31;;;;;;;;;;;;;;;;;;4999001;28;19926;-73
2023/12/02 19:28:57;;;;;;;;;;;;;;;;;;4998732;28;20295;-74
2023/12/02 19:31:24;;;;;;;;;;;;;;;;;;4997892;28;19925;-75
2023/12/02 19:33:51;;;;;;;;;;;;;;;;;;4997293;28;20307;-74
2023/12/02 19:36:18;;;;;;;;;;;;;;;;;;4997733;28;19926;-74
2023/12/02 19:38:45;;;;;;;;;;;;;;;;;;4996928;28;20372;-74
2023/12/02 19:41:12;;;;;;;;;;;;;;;;;;4997890;28;19926;-74
2023/12/02 19:43:39;;;;;;;;;;;;;;;;;;4997733;28;20391;-74
2023/12/02 19:46:06;;;;;;;;;;;;;;;;;;4997805;28;19933;-74
2023/12/02 19:48:33;;;;;;;;;;;;;;;;;;4997579;28;20415;-76
2023/12/02 19:51:00;;;;;;;;;;;;;;;;;;4997892;28;19933;-75
2023/12/02 19:53:27;;;;;;;;;;;;;;;;;;4998600;28;19926;-74
2023/12/02 19:55:54;;;;;;;;;;;;;;;;;;4998304;28;19926;-75
2023/12/02 19:58:22;;;;;;;;;;;;;;;;;;4997577;28;19926;-74
2023/12/02 20:00:49;;;;;;;;;;;;;;;;;;4997417;28;19926;-74
2023/12/02 20:03:16;;;;;;;;;;;;;;;;;;4997153;28;19933;-74
2023/12/02 20:05:43;;;;;;;;;;;;;;;;;;4997048;28;20387;-76
2023/12/02 20:08:09;;;;;;;;;;;;;;;;;;4997384;28;19925;-73
2023/12/02 20:10:36;;;;;;;;;;;;;;;;;;4996616;28;20273;-74
2023/12/02 20:13:03;;;;;;;;;;;;;;;;;;4998013;28;19933;-73
2023/12/02 20:15:30;;;;;;;;;;;;;;;;;;4999193;28;19933;-74
2023/12/02 20:17:57;;;;;;;;;;;;;;;;;;5001215;28;19933;-73
2023/12/02 20:20:24;;;;;;;;;;;;;;;;;;5001639;28;19929;-73
2023/12/02 20:22:51;;;;;;;;;;;;;;;;;;5001941;28;20030;-73
2023/12/02 20:25:18;;;;;;;;;;;;;;;;;;5002141;28;19925;-73
2023/12/02 20:27:45;;;;;;;;;;;;;;;;;;5003023;28;20339;-73
2023/12/02 20:30:12;;;;;;;;;;;;;;;;;;5003042;28;19925;-74
2023/12/02 20:32:39;;;;;;;;;;;;;;;;;;5002048;28;19933;-73
2023/12/02 20:35:06;;;;;;;;;;;;;;;;;;5003875;28;19926;-74
2023/12/02 20:37:33;;;;;;;;;;;;;;;;;;5003901;28;19929;-74
2023/12/02 20:40:00;;;;;;;;;;;;;;;;;;5002278;28;19933;-74
2023/12/02 20:42:27;;;;;;;;;;;;;;;;;;5000406;28;19965;-74
2023/12/02 20:44:54;;;;;;;;;;;;;;;;;;4999765;28;19926;-75
2023/12/02 20:47:21;;;;;;;;;;;;;;;;;;4997735;28;19932;-74
2023/12/02 20:49:48;;;;;;;;;;;;;;;;;;4996751;28;19926;-73
2023/12/02 20:52:15;;;;;;;;;;;;;;;;;;4996864;28;19933;-74
2023/12/02 20:54:41;;;;;;;;;;;;;;;;;;4996427;28;19933;-75
2023/12/02 20:57:08;;;;;;;;;;;;;;;;;;4996352;28;19933;-74
2023/12/02 20:59:35;;;;;;;;;;;;;;;;;;4996568;28;19933;-74
2023/12/02 21:02:03;;;;;;;;;;;;;;;;;;4996619;28;19926;-74
2023/12/02 21:04:30;;;;;;;;;;;;;;;;;;4996120;28;20078;-73
2023/12/02 21:06:57;;;;;;;;;;;;;;;;;;4996376;28;19926;-75
2023/12/02 21:09:24;;;;;;;;;;;;;;;;;;4996591;28;20379;-75
2023/12/02 21:11:50;;;;;;;;;;;;;;;;;;4995944;28;19933;-75
2023/12/02 21:14:17;;;;;;;;;;;;;;;;;;4996000;28;19933;-75
2023/12/02 21:16:44;;;;;;;;;;;;;;;;;;4997868;28;19926;-72
2023/12/02 21:19:12;;;;;;;;;;;;;;;;;;4995962;28;20375;-73
2023/12/02 21:21:38;;;;;;;;;;;;;;;;;;4995929;28;19926;-75
2023/12/02 21:24:06;;;;;;;;;;;;;;;;;;4996631;28;20295;-74
2023/12/02 21:26:32;;;;;;;;;;;;;;;;;;4996135;28;19973;-75